sensor_id;sensor_type;location;lat;lon;timestamp;temperature;humidity
30150;DHT22;16962;48.646;9.026;2023-05-16T00:00:34;11.40;99.90
30150;DHT22;16962;48.646;9.026;2023-05-16T00:03:21;11.30;1.00
30150;DHT22;16962;48.646;9.026;2023-05-16T00:06:08;11.30;1.00
30150;DHT22;16962;48.646;9.026;2023-05-16T00:08:56;11.30;1.00
30150;DHT22;16962;48.646;9.026;2023-05-16T00:11:45;11.30;1.00
30150;DHT22;16962;48.646;9.026;2023-05-16T00:14:34;11.30;53.50
30150;DHT22;16962;48.646;9.026;2023-05-16T00:17:25;11.30;97.10
30150;DHT22;16962;48.646;9.026;2023-05-16T00:20:15;11.30;99.90
30150;DHT22;16962;48.646;9.026;2023-05-16T00:23:05;11.20;99.90
30150;DHT22;16962;48.646;9.026;2023-05-16T00:25:52;11.20;99.90
30150;DHT22;16962;48.646;9.026;2023-05-16T00:28:39;11.10;99.90
30150;DHT22;16962;48.646;9.026;2023-05-16T00:31:26;11.00;99.90
30150;DHT22;16962;48.646;9.026;2023-05-16T00:34:13;11.00;99.90
30150;DHT22;16962;48.646;9.026;2023-05-16T00:37:04;11.00;99.90
30150;DHT22;16962;48.646;9.026;2023-05-16T00:39:51;11.00;1.00
30150;DHT22;16962;48.646;9.026;2023-05-16T00:42:39;11.00;1.00
30150;DHT22;16962;48.646;9.026;2023-05-16T00:45:27;11.00;1.00
30150;DHT22;16962;48.646;9.026;2023-05-16T00:48:14;10.90;1.00
30150;DHT22;16962;48.646;9.026;2023-05-16T00:51:02;10.90;1.00
30150;DHT22;16962;48.646;9.026;2023-05-16T00:53:49;10.90;1.00
30150;DHT22;16962;48.646;9.026;2023-05-16T00:56:39;10.90;1.00
30150;DHT22;16962;48.646;9.026;2023-05-16T00:59:26;10.80;15.80
30150;DHT22;16962;48.646;9.026;2023-05-16T01:02:14;10.80;98.70
30150;DHT22;16962;48.646;9.026;2023-05-16T01:05:02;10.70;99.90
30150;DHT22;16962;48.646;9.026;2023-05-16T01:07:51;10.70;99.90
30150;DHT22;16962;48.646;9.026;2023-05-16T01:17:21;10.70;99.90
30150;DHT22;16962;48.646;9.026;2023-05-16T01:20:27;10.70;99.90
30150;DHT22;16962;48.646;9.026;2023-05-16T01:26:25;10.70;99.90
30150;DHT22;16962;48.646;9.026;2023-05-16T01:29:14;10.70;99.90
30150;DHT22;16962;48.646;9.026;2023-05-16T01:32:02;10.70;99.90
30150;DHT22;16962;48.646;9.026;2023-05-16T01:34:50;10.70;1.00
30150;DHT22;16962;48.646;9.026;2023-05-16T01:37:44;10.70;1.00
30150;DHT22;16962;48.646;9.026;2023-05-16T01:40:58;10.70;1.00
30150;DHT22;16962;48.646;9.026;2023-05-16T01:43:49;10.70;4.40
30150;DHT22;16962;48.646;9.026;2023-05-16T01:46:42;10.60;1.00
30150;DHT22;16962;48.646;9.026;2023-05-16T01:49:38;10.60;1.00
30150;DHT22;16962;48.646;9.026;2023-05-16T01:52:44;10.60;40.70
30150;DHT22;16962;48.646;9.026;2023-05-16T01:55:44;10.50;99.90
30150;DHT22;16962;48.646;9.026;2023-05-16T01:58:33;10.50;99.90
30150;DHT22;16962;48.646;9.026;2023-05-16T02:01:21;10.40;99.90
30150;DHT22;16962;48.646;9.026;2023-05-16T02:04:09;10.40;99.90
30150;DHT22;16962;48.646;9.026;2023-05-16T02:06:57;10.40;99.90
30150;DHT22;16962;48.646;9.026;2023-05-16T02:09:46;10.30;99.90
30150;DHT22;16962;48.646;9.026;2023-05-16T02:12:36;10.40;99.90
30150;DHT22;16962;48.646;9.026;2023-05-16T02:15:23;10.30;99.90
30150;DHT22;16962;48.646;9.026;2023-05-16T02:18:11;10.30;99.90
30150;DHT22;16962;48.646;9.026;2023-05-16T02:20:58;10.30;99.90
30150;DHT22;16962;48.646;9.026;2023-05-16T02:23:45;10.20;99.90
30150;DHT22;16962;48.646;9.026;2023-05-16T02:26:32;10.20;99.90
30150;DHT22;16962;48.646;9.026;2023-05-16T02:29:22;10.10;1.00
30150;DHT22;16962;48.646;9.026;2023-05-16T02:32:09;10.00;1.00
30150;DHT22;16962;48.646;9.026;2023-05-16T02:34:56;10.00;45.50
30150;DHT22;16962;48.646;9.026;2023-05-16T02:37:43;10.00;99.90
30150;DHT22;16962;48.646;9.026;2023-05-16T02:40:30;10.00;1.00
30150;DHT22;16962;48.646;9.026;2023-05-16T02:43:18;9.90;15.80
30150;DHT22;16962;48.646;9.026;2023-05-16T02:46:27;9.90;99.90
30150;DHT22;16962;48.646;9.026;2023-05-16T02:49:19;9.90;1.00
30150;DHT22;16962;48.646;9.026;2023-05-16T02:52:06;9.90;99.90
30150;DHT22;16962;48.646;9.026;2023-05-16T02:54:56;9.90;99.90
30150;DHT22;16962;48.646;9.026;2023-05-16T02:58:03;9.90;1.00
30150;DHT22;16962;48.646;9.026;2023-05-16T03:00:51;9.90;29.00
30150;DHT22;16962;48.646;9.026;2023-05-16T03:03:39;9.90;99.90
30150;DHT22;16962;48.646;9.026;2023-05-16T03:06:26;9.90;99.90
30150;DHT22;16962;48.646;9.026;2023-05-16T03:09:13;9.90;99.90
30150;DHT22;16962;48.646;9.026;2023-05-16T03:12:00;9.90;1.00
30150;DHT22;16962;48.646;9.026;2023-05-16T03:14:48;9.90;1.00
30150;DHT22;16962;48.646;9.026;2023-05-16T03:17:35;9.90;1.00
30150;DHT22;16962;48.646;9.026;2023-05-16T03:20:22;9.90;1.00
30150;DHT22;16962;48.646;9.026;2023-05-16T03:23:10;9.90;1.00
30150;DHT22;16962;48.646;9.026;2023-05-16T03:25:57;9.80;33.90
30150;DHT22;16962;48.646;9.026;2023-05-16T03:28:45;9.80;97.70
30150;DHT22;16962;48.646;9.026;2023-05-16T03:31:32;9.80;99.90
30150;DHT22;16962;48.646;9.026;2023-05-16T03:34:21;9.80;99.90
30150;DHT22;16962;48.646;9.026;2023-05-16T03:37:09;9.80;99.90
30150;DHT22;16962;48.646;9.026;2023-05-16T03:39:57;9.80;99.90
30150;DHT22;16962;48.646;9.026;2023-05-16T03:42:44;9.80;99.90
30150;DHT22;16962;48.646;9.026;2023-05-16T03:45:31;9.80;99.90
30150;DHT22;16962;48.646;9.026;2023-05-16T03:48:19;9.80;99.90
30150;DHT22;16962;48.646;9.026;2023-05-16T03:51:06;9.80;99.90
30150;DHT22;16962;48.646;9.026;2023-05-16T03:53:56;9.80;99.90
30150;DHT22;16962;48.646;9.026;2023-05-16T03:56:48;9.90;99.90
30150;DHT22;16962;48.646;9.026;2023-05-16T03:59:35;9.90;99.90
30150;DHT22;16962;48.646;9.026;2023-05-16T04:02:59;9.90;99.90
30150;DHT22;16962;48.646;9.026;2023-05-16T04:09:27;10.00;99.90
30150;DHT22;16962;48.646;9.026;2023-05-16T04:12:14;10.00;99.90
30150;DHT22;16962;48.646;9.026;2023-05-16T04:15:02;10.00;99.90
30150;DHT22;16962;48.646;9.026;2023-05-16T04:17:51;10.10;99.90
30150;DHT22;16962;48.646;9.026;2023-05-16T04:20:38;10.10;99.90
30150;DHT22;16962;48.646;9.026;2023-05-16T04:23:27;10.20;99.90
30150;DHT22;16962;48.646;9.026;2023-05-16T04:26:14;10.20;99.90
30150;DHT22;16962;48.646;9.026;2023-05-16T04:29:02;10.20;99.90
30150;DHT22;16962;48.646;9.026;2023-05-16T04:31:50;10.20;99.90
30150;DHT22;16962;48.646;9.026;2023-05-16T04:34:37;10.30;99.90
30150;DHT22;16962;48.646;9.026;2023-05-16T04:37:26;10.30;99.90
30150;DHT22;16962;48.646;9.026;2023-05-16T04:40:13;10.30;99.90
30150;DHT22;16962;48.646;9.026;2023-05-16T04:43:00;10.40;99.90
30150;DHT22;16962;48.646;9.026;2023-05-16T04:45:48;10.40;99.90
30150;DHT22;16962;48.646;9.026;2023-05-16T04:48:38;10.40;99.90
30150;DHT22;16962;48.646;9.026;2023-05-16T04:51:25;10.50;99.90
30150;DHT22;16962;48.646;9.026;2023-05-16T04:54:13;10.50;99.90
30150;DHT22;16962;48.646;9.026;2023-05-16T04:57:00;10.50;99.90
30150;DHT22;16962;48.646;9.026;2023-05-16T04:59:47;10.60;99.90
30150;DHT22;16962;48.646;9.026;2023-05-16T05:02:35;10.60;99.90
30150;DHT22;16962;48.646;9.026;2023-05-16T05:05:22;10.70;99.90
30150;DHT22;16962;48.646;9.026;2023-05-16T05:08:09;10.70;99.90
30150;DHT22;16962;48.646;9.026;2023-05-16T05:10:57;10.70;19.20
30150;DHT22;16962;48.646;9.026;2023-05-16T05:13:44;10.80;1.00
30150;DHT22;16962;48.646;9.026;2023-05-16T05:16:31;10.70;99.90
30150;DHT22;16962;48.646;9.026;2023-05-16T05:19:19;10.70;99.90
30150;DHT22;16962;48.646;9.026;2023-05-16T05:22:08;10.80;1.00
30150;DHT22;16962;48.646;9.026;2023-05-16T05:24:56;10.80;99.90
30150;DHT22;16962;48.646;9.026;2023-05-16T05:27:46;10.80;1.00
30150;DHT22;16962;48.646;9.026;2023-05-16T05:30:34;10.80;99.90
30150;DHT22;16962;48.646;9.026;2023-05-16T05:33:27;10.90;75.30
30150;DHT22;16962;48.646;9.026;2023-05-16T05:36:19;11.00;99.90
30150;DHT22;16962;48.646;9.026;2023-05-16T07:33:52;11.10;99.90
30150;DHT22;16962;48.646;9.026;2023-05-16T07:37:11;11.20;99.90
30150;DHT22;16962;48.646;9.026;2023-05-16T07:40:14;11.30;99.90
30150;DHT22;16962;48.646;9.026;2023-05-16T07:43:25;11.30;1.00
30150;DHT22;16962;48.646;9.026;2023-05-16T07:47:04;11.40;1.00
30150;DHT22;16962;48.646;9.026;2023-05-16T07:49:54;11.40;1.00
30150;DHT22;16962;48.646;9.026;2023-05-16T07:56:01;11.40;99.90
30150;DHT22;16962;48.646;9.026;2023-05-16T07:58:51;11.70;99.90
30150;DHT22;16962;48.646;9.026;2023-05-16T08:02:03;12.00;60.00
30150;DHT22;16962;48.646;9.026;2023-05-16T08:09:26;12.50;99.90
30150;DHT22;16962;48.646;9.026;2023-05-16T08:12:23;12.50;99.90
30150;DHT22;16962;48.646;9.026;2023-05-16T08:15:51;12.30;99.90
30150;DHT22;16962;48.646;9.026;2023-05-16T11:05:00;11.30;99.90
30150;DHT22;16962;48.646;9.026;2023-05-16T11:08:18;11.50;99.90
30150;DHT22;16962;48.646;9.026;2023-05-16T11:12:08;11.70;99.90
30150;DHT22;16962;48.646;9.026;2023-05-16T11:15:26;11.80;99.90
30150;DHT22;16962;48.646;9.026;2023-05-16T11:31:37;11.30;99.90
30150;DHT22;16962;48.646;9.026;2023-05-16T11:35:08;11.00;1.00
30150;DHT22;16962;48.646;9.026;2023-05-16T14:20:52;9.80;99.90
30150;DHT22;16962;48.646;9.026;2023-05-16T14:23:49;9.90;1.00
30150;DHT22;16962;48.646;9.026;2023-05-16T14:27:17;10.00;1.00
30150;DHT22;16962;48.646;9.026;2023-05-16T14:30:19;10.10;99.90
30150;DHT22;16962;48.646;9.026;2023-05-16T14:33:25;10.20;1.00
30150;DHT22;16962;48.646;9.026;2023-05-16T14:37:18;10.20;1.00
30150;DHT22;16962;48.646;9.026;2023-05-16T14:40:18;10.30;99.90
30150;DHT22;16962;48.646;9.026;2023-05-16T14:43:10;10.40;1.00
30150;DHT22;16962;48.646;9.026;2023-05-16T14:46:00;10.70;1.00
30150;DHT22;16962;48.646;9.026;2023-05-16T14:48:47;10.80;99.90
30150;DHT22;16962;48.646;9.026;2023-05-16T14:51:37;10.90;99.90
30150;DHT22;16962;48.646;9.026;2023-05-16T14:54:24;10.90;1.00
30150;DHT22;16962;48.646;9.026;2023-05-16T14:57:13;10.90;99.90
30150;DHT22;16962;48.646;9.026;2023-05-16T15:00:01;10.80;99.90
30150;DHT22;16962;48.646;9.026;2023-05-16T15:02:48;11.00;3.00
30150;DHT22;16962;48.646;9.026;2023-05-16T15:05:36;11.10;1.00
30150;DHT22;16962;48.646;9.026;2023-05-16T15:08:23;11.20;99.90
30150;DHT22;16962;48.646;9.026;2023-05-16T15:11:15;11.30;99.90
30150;DHT22;16962;48.646;9.026;2023-05-16T15:14:06;11.40;99.90
30150;DHT22;16962;48.646;9.026;2023-05-16T15:16:58;11.50;46.70
30150;DHT22;16962;48.646;9.026;2023-05-16T15:19:48;11.50;1.00
30150;DHT22;16962;48.646;9.026;2023-05-16T15:22:39;11.60;99.90
30150;DHT22;16962;48.646;9.026;2023-05-16T15:25:32;11.60;99.90
30150;DHT22;16962;48.646;9.026;2023-05-16T15:28:19;11.50;99.90
30150;DHT22;16962;48.646;9.026;2023-05-16T15:31:08;11.60;99.90
30150;DHT22;16962;48.646;9.026;2023-05-16T15:34:06;11.60;99.90
30150;DHT22;16962;48.646;9.026;2023-05-16T15:36:54;11.80;99.90
30150;DHT22;16962;48.646;9.026;2023-05-16T15:39:43;11.90;99.90
30150;DHT22;16962;48.646;9.026;2023-05-16T15:42:31;11.90;99.90
30150;DHT22;16962;48.646;9.026;2023-05-16T15:45:19;12.00;57.80
30150;DHT22;16962;48.646;9.026;2023-05-16T15:48:37;12.00;11.20
30150;DHT22;16962;48.646;9.026;2023-05-16T15:51:35;11.80;1.00
30150;DHT22;16962;48.646;9.026;2023-05-16T15:54:27;11.90;1.00
30150;DHT22;16962;48.646;9.026;2023-05-16T15:57:14;12.10;1.00
30150;DHT22;16962;48.646;9.026;2023-05-16T16:00:07;12.10;1.00
30150;DHT22;16962;48.646;9.026;2023-05-16T16:03:00;12.20;99.90
30150;DHT22;16962;48.646;9.026;2023-05-16T16:05:49;12.40;99.90
30150;DHT22;16962;48.646;9.026;2023-05-16T16:08:37;12.50;99.90
30150;DHT22;16962;48.646;9.026;2023-05-16T16:11:30;12.70;99.90
30150;DHT22;16962;48.646;9.026;2023-05-16T16:14:40;12.80;99.90
30150;DHT22;16962;48.646;9.026;2023-05-16T16:17:28;12.40;99.90
30150;DHT22;16962;48.646;9.026;2023-05-16T16:20:26;12.30;99.90
30150;DHT22;16962;48.646;9.026;2023-05-16T16:23:14;12.40;99.90
30150;DHT22;16962;48.646;9.026;2023-05-16T16:26:05;12.70;99.90
30150;DHT22;16962;48.646;9.026;2023-05-16T16:28:53;12.70;99.90
30150;DHT22;16962;48.646;9.026;2023-05-16T16:31:42;12.50;99.90
30150;DHT22;16962;48.646;9.026;2023-05-16T16:34:30;12.20;99.90
30150;DHT22;16962;48.646;9.026;2023-05-16T16:37:18;12.00;88.00
30150;DHT22;16962;48.646;9.026;2023-05-16T16:40:14;11.90;99.90
30150;DHT22;16962;48.646;9.026;2023-05-16T16:43:02;11.50;99.90
30150;DHT22;16962;48.646;9.026;2023-05-16T16:45:55;11.40;99.90
30150;DHT22;16962;48.646;9.026;2023-05-16T16:48:49;11.20;99.90
30150;DHT22;16962;48.646;9.026;2023-05-16T16:51:39;11.20;99.90
30150;DHT22;16962;48.646;9.026;2023-05-16T16:54:30;11.20;99.90
30150;DHT22;16962;48.646;9.026;2023-05-16T16:57:21;11.20;99.90
30150;DHT22;16962;48.646;9.026;2023-05-16T17:00:09;11.20;99.90
30150;DHT22;16962;48.646;9.026;2023-05-16T17:03:00;11.20;99.90
30150;DHT22;16962;48.646;9.026;2023-05-16T17:05:50;11.20;99.90
30150;DHT22;16962;48.646;9.026;2023-05-16T17:08:40;11.10;99.90
30150;DHT22;16962;48.646;9.026;2023-05-16T17:11:28;11.20;99.90
30150;DHT22;16962;48.646;9.026;2023-05-16T17:14:16;11.10;99.90
30150;DHT22;16962;48.646;9.026;2023-05-16T17:17:04;11.00;99.90
30150;DHT22;16962;48.646;9.026;2023-05-16T17:19:54;11.00;99.90
30150;DHT22;16962;48.646;9.026;2023-05-16T17:22:44;11.00;99.90
30150;DHT22;16962;48.646;9.026;2023-05-16T17:25:34;10.90;95.60
30150;DHT22;16962;48.646;9.026;2023-05-16T17:28:22;10.90;93.00
30150;DHT22;16962;48.646;9.026;2023-05-16T17:31:10;10.90;97.20
30150;DHT22;16962;48.646;9.026;2023-05-16T17:34:02;10.80;91.80
30150;DHT22;16962;48.646;9.026;2023-05-16T17:36:49;10.80;68.80
30150;DHT22;16962;48.646;9.026;2023-05-16T17:39:40;10.70;48.60
30150;DHT22;16962;48.646;9.026;2023-05-16T17:42:27;10.70;36.90
30150;DHT22;16962;48.646;9.026;2023-05-16T17:45:14;10.60;34.80
30150;DHT22;16962;48.646;9.026;2023-05-16T17:48:03;10.60;37.60
30150;DHT22;16962;48.646;9.026;2023-05-16T17:50:51;10.50;3.30
30150;DHT22;16962;48.646;9.026;2023-05-16T17:53:51;10.50;1.00
30150;DHT22;16962;48.646;9.026;2023-05-16T17:57:01;10.50;10.30
30150;DHT22;16962;48.646;9.026;2023-05-16T17:59:49;10.40;1.00
30150;DHT22;16962;48.646;9.026;2023-05-16T18:02:37;10.40;1.00
30150;DHT22;16962;48.646;9.026;2023-05-16T18:05:27;10.40;1.00
30150;DHT22;16962;48.646;9.026;2023-05-16T18:08:16;10.40;1.00
30150;DHT22;16962;48.646;9.026;2023-05-16T18:11:03;10.40;1.00
30150;DHT22;16962;48.646;9.026;2023-05-16T18:13:51;10.40;1.00
30150;DHT22;16962;48.646;9.026;2023-05-16T18:16:40;10.40;1.00
30150;DHT22;16962;48.646;9.026;2023-05-16T18:19:29;10.30;1.00
30150;DHT22;16962;48.646;9.026;2023-05-16T18:22:20;10.30;1.00
30150;DHT22;16962;48.646;9.026;2023-05-16T18:25:10;10.30;1.00
30150;DHT22;16962;48.646;9.026;2023-05-16T18:27:59;10.20;1.00
30150;DHT22;16962;48.646;9.026;2023-05-16T18:31:01;10.10;1.00
30150;DHT22;16962;48.646;9.026;2023-05-16T18:33:49;10.10;1.00
30150;DHT22;16962;48.646;9.026;2023-05-16T18:36:39;10.00;1.00
30150;DHT22;16962;48.646;9.026;2023-05-16T18:39:30;9.90;1.00
30150;DHT22;16962;48.646;9.026;2023-05-16T18:42:18;9.70;1.00
30150;DHT22;16962;48.646;9.026;2023-05-16T18:45:08;9.50;1.00
30150;DHT22;16962;48.646;9.026;2023-05-16T18:47:56;9.50;1.00
30150;DHT22;16962;48.646;9.026;2023-05-16T18:50:45;9.30;1.00
30150;DHT22;16962;48.646;9.026;2023-05-16T18:53:32;9.30;1.00
30150;DHT22;16962;48.646;9.026;2023-05-16T18:56:22;9.20;1.00
30150;DHT22;16962;48.646;9.026;2023-05-16T18:59:13;9.10;1.00
30150;DHT22;16962;48.646;9.026;2023-05-16T19:02:04;9.00;1.00
30150;DHT22;16962;48.646;9.026;2023-05-16T19:04:52;8.90;1.00
30150;DHT22;16962;48.646;9.026;2023-05-16T19:07:40;8.90;1.00
30150;DHT22;16962;48.646;9.026;2023-05-16T19:10:28;8.80;1.00
30150;DHT22;16962;48.646;9.026;2023-05-16T19:13:25;8.70;1.00
30150;DHT22;16962;48.646;9.026;2023-05-16T19:16:16;8.60;1.00
30150;DHT22;16962;48.646;9.026;2023-05-16T19:19:04;8.60;1.00
30150;DHT22;16962;48.646;9.026;2023-05-16T19:21:54;8.60;1.00
30150;DHT22;16962;48.646;9.026;2023-05-16T19:24:42;8.60;1.00
30150;DHT22;16962;48.646;9.026;2023-05-16T19:27:33;8.60;1.00
30150;DHT22;16962;48.646;9.026;2023-05-16T19:30:22;8.60;1.00
30150;DHT22;16962;48.646;9.026;2023-05-16T19:33:10;8.60;1.00
30150;DHT22;16962;48.646;9.026;2023-05-16T19:35:58;8.60;1.00
30150;DHT22;16962;48.646;9.026;2023-05-16T19:38:45;8.60;1.00
30150;DHT22;16962;48.646;9.026;2023-05-16T19:41:33;8.60;1.00
30150;DHT22;16962;48.646;9.026;2023-05-16T19:44:21;8.50;1.00
30150;DHT22;16962;48.646;9.026;2023-05-16T19:47:08;8.40;1.00
30150;DHT22;16962;48.646;9.026;2023-05-16T19:49:57;8.40;1.00
30150;DHT22;16962;48.646;9.026;2023-05-16T19:52:45;8.50;1.00
30150;DHT22;16962;48.646;9.026;2023-05-16T19:55:35;8.50;1.00
30150;DHT22;16962;48.646;9.026;2023-05-16T19:58:24;8.40;99.90
30150;DHT22;16962;48.646;9.026;2023-05-16T20:01:15;8.30;1.00
30150;DHT22;16962;48.646;9.026;2023-05-16T20:04:02;8.30;99.90
30150;DHT22;16962;48.646;9.026;2023-05-16T20:06:52;8.20;99.90
30150;DHT22;16962;48.646;9.026;2023-05-16T20:09:39;8.20;99.90
30150;DHT22;16962;48.646;9.026;2023-05-16T20:12:27;8.20;99.90
30150;DHT22;16962;48.646;9.026;2023-05-16T20:15:15;8.20;99.90
30150;DHT22;16962;48.646;9.026;2023-05-16T20:18:06;8.20;99.90
30150;DHT22;16962;48.646;9.026;2023-05-16T20:20:54;8.20;99.90
30150;DHT22;16962;48.646;9.026;2023-05-16T20:23:45;8.20;99.90
30150;DHT22;16962;48.646;9.026;2023-05-16T20:26:34;8.10;99.90
30150;DHT22;16962;48.646;9.026;2023-05-16T20:29:28;8.10;99.90
30150;DHT22;16962;48.646;9.026;2023-05-16T20:32:20;8.10;99.90
30150;DHT22;16962;48.646;9.026;2023-05-16T20:35:08;8.10;99.90
30150;DHT22;16962;48.646;9.026;2023-05-16T20:37:58;8.10;99.90
30150;DHT22;16962;48.646;9.026;2023-05-16T20:40:46;8.00;99.90
30150;DHT22;16962;48.646;9.026;2023-05-16T20:43:34;8.00;99.90
30150;DHT22;16962;48.646;9.026;2023-05-16T20:46:21;8.00;99.90
30150;DHT22;16962;48.646;9.026;2023-05-16T20:49:12;7.90;99.90
30150;DHT22;16962;48.646;9.026;2023-05-16T20:51:59;7.90;99.90
30150;DHT22;16962;48.646;9.026;2023-05-16T20:54:47;7.80;99.90
30150;DHT22;16962;48.646;9.026;2023-05-16T20:57:35;7.80;99.90
30150;DHT22;16962;48.646;9.026;2023-05-16T21:00:22;7.70;99.90
30150;DHT22;16962;48.646;9.026;2023-05-16T21:03:10;7.70;99.90
30150;DHT22;16962;48.646;9.026;2023-05-16T21:06:00;7.60;99.90
30150;DHT22;16962;48.646;9.026;2023-05-16T21:08:48;7.60;99.90
30150;DHT22;16962;48.646;9.026;2023-05-16T21:11:35;7.60;99.90
30150;DHT22;16962;48.646;9.026;2023-05-16T21:14:23;7.60;99.90
30150;DHT22;16962;48.646;9.026;2023-05-16T21:17:11;7.50;99.90
30150;DHT22;16962;48.646;9.026;2023-05-16T21:19:58;7.50;99.90
30150;DHT22;16962;48.646;9.026;2023-05-16T21:22:46;7.40;99.90
30150;DHT22;16962;48.646;9.026;2023-05-16T21:25:33;7.30;99.90
30150;DHT22;16962;48.646;9.026;2023-05-16T21:28:20;7.30;99.90
30150;DHT22;16962;48.646;9.026;2023-05-16T21:31:08;7.30;1.00
30150;DHT22;16962;48.646;9.026;2023-05-16T21:33:57;7.20;1.00
30150;DHT22;16962;48.646;9.026;2023-05-16T21:36:44;7.20;1.00
30150;DHT22;16962;48.646;9.026;2023-05-16T21:39:32;7.20;1.00
30150;DHT22;16962;48.646;9.026;2023-05-16T21:42:19;7.20;1.00
30150;DHT22;16962;48.646;9.026;2023-05-16T21:45:10;7.10;1.00
30150;DHT22;16962;48.646;9.026;2023-05-16T21:48:02;7.00;1.00
30150;DHT22;16962;48.646;9.026;2023-05-16T21:50:54;7.00;1.00
30150;DHT22;16962;48.646;9.026;2023-05-16T21:53:42;7.00;1.00
30150;DHT22;16962;48.646;9.026;2023-05-16T21:56:29;7.00;1.00
30150;DHT22;16962;48.646;9.026;2023-05-16T21:59:16;7.00;1.00
30150;DHT22;16962;48.646;9.026;2023-05-16T22:02:09;7.00;1.00
30150;DHT22;16962;48.646;9.026;2023-05-16T22:05:04;7.00;1.00
30150;DHT22;16962;48.646;9.026;2023-05-16T22:07:55;7.00;1.00
30150;DHT22;16962;48.646;9.026;2023-05-16T22:10:44;7.00;1.00
30150;DHT22;16962;48.646;9.026;2023-05-16T22:13:31;7.00;1.00
30150;DHT22;16962;48.646;9.026;2023-05-16T22:16:19;7.00;1.00
30150;DHT22;16962;48.646;9.026;2023-05-16T22:19:06;7.00;99.90
30150;DHT22;16962;48.646;9.026;2023-05-16T22:21:55;7.00;1.00
30150;DHT22;16962;48.646;9.026;2023-05-16T22:24:42;7.00;99.90
30150;DHT22;16962;48.646;9.026;2023-05-16T22:27:29;7.00;99.90
30150;DHT22;16962;48.646;9.026;2023-05-16T22:30:17;7.00;99.90
30150;DHT22;16962;48.646;9.026;2023-05-16T22:33:04;6.90;1.00
30150;DHT22;16962;48.646;9.026;2023-05-16T22:35:51;6.90;1.00
30150;DHT22;16962;48.646;9.026;2023-05-16T22:38:42;6.80;99.90
30150;DHT22;16962;48.646;9.026;2023-05-16T22:41:29;6.70;99.90
30150;DHT22;16962;48.646;9.026;2023-05-16T22:44:17;6.70;1.00
30150;DHT22;16962;48.646;9.026;2023-05-16T22:47:04;6.60;1.00
30150;DHT22;16962;48.646;9.026;2023-05-16T22:49:52;6.60;1.00
30150;DHT22;16962;48.646;9.026;2023-05-16T22:52:39;6.50;1.00
30150;DHT22;16962;48.646;9.026;2023-05-16T22:55:32;6.50;1.00
30150;DHT22;16962;48.646;9.026;2023-05-16T22:58:19;6.50;1.00
30150;DHT22;16962;48.646;9.026;2023-05-16T23:01:07;6.40;1.00
30150;DHT22;16962;48.646;9.026;2023-05-16T23:03:55;6.30;1.00
30150;DHT22;16962;48.646;9.026;2023-05-16T23:06:42;6.30;1.00
30150;DHT22;16962;48.646;9.026;2023-05-16T23:09:30;6.30;1.00
30150;DHT22;16962;48.646;9.026;2023-05-16T23:12:17;6.30;1.00
30150;DHT22;16962;48.646;9.026;2023-05-16T23:15:07;6.30;1.00
30150;DHT22;16962;48.646;9.026;2023-05-16T23:17:56;6.30;1.00
30150;DHT22;16962;48.646;9.026;2023-05-16T23:20:45;6.30;1.00
30150;DHT22;16962;48.646;9.026;2023-05-16T23:23:33;6.20;1.00
30150;DHT22;16962;48.646;9.026;2023-05-16T23:26:20;6.10;1.00
30150;DHT22;16962;48.646;9.026;2023-05-16T23:29:07;6.00;1.00
30150;DHT22;16962;48.646;9.026;2023-05-16T23:31:55;6.00;1.00
30150;DHT22;16962;48.646;9.026;2023-05-16T23:34:45;6.10;1.00
30150;DHT22;16962;48.646;9.026;2023-05-16T23:37:32;6.10;1.00
30150;DHT22;16962;48.646;9.026;2023-05-16T23:40:20;6.10;1.00
30150;DHT22;16962;48.646;9.026;2023-05-16T23:43:07;6.00;1.00
30150;DHT22;16962;48.646;9.026;2023-05-16T23:45:54;6.00;1.00
30150;DHT22;16962;48.646;9.026;2023-05-16T23:48:42;5.90;1.00
30150;DHT22;16962;48.646;9.026;2023-05-16T23:51:29;5.80;1.00
30150;DHT22;16962;48.646;9.026;2023-05-16T23:54:36;5.70;1.00
30150;DHT22;16962;48.646;9.026;2023-05-16T23:57:47;5.70;1.00
